sensor_id;sensor_type;location;lat;lon;timestamp;P1;durP1;ratioP1;P2;durP2;ratioP2
11604;SDS011;5858;43.076;25.626;2023-05-10T00:00:55;4.30;;;3.60;;
11604;SDS011;5858;43.076;25.626;2023-05-10T00:03:22;5.77;;;3.07;;
11604;SDS011;5858;43.076;25.626;2023-05-10T00:05:49;6.40;;;3.43;;
11604;SDS011;5858;43.076;25.626;2023-05-10T00:08:16;5.40;;;3.77;;
11604;SDS011;5858;43.076;25.626;2023-05-10T00:10:43;4.20;;;3.50;;
11604;SDS011;5858;43.076;25.626;2023-05-10T00:13:10;5.23;;;3.10;;
11604;SDS011;5858;43.076;25.626;2023-05-10T00:15:39;4.23;;;3.30;;
11604;SDS011;5858;43.076;25.626;2023-05-10T00:18:06;5.40;;;4.00;;
11604;SDS011;5858;43.076;25.626;2023-05-10T00:20:33;3.97;;;3.37;;
11604;SDS011;5858;43.076;25.626;2023-05-10T00:23:00;5.30;;;2.63;;
11604;SDS011;5858;43.076;25.626;2023-05-10T00:25:27;4.43;;;3.40;;
11604;SDS011;5858;43.076;25.626;2023-05-10T00:27:54;4.23;;;2.97;;
11604;SDS011;5858;43.076;25.626;2023-05-10T00:30:22;4.80;;;3.37;;
11604;SDS011;5858;43.076;25.626;2023-05-10T00:32:50;6.83;;;3.80;;
11604;SDS011;5858;43.076;25.626;2023-05-10T00:35:17;4.03;;;3.20;;
11604;SDS011;5858;43.076;25.626;2023-05-10T00:37:45;3.93;;;3.30;;
11604;SDS011;5858;43.076;25.626;2023-05-10T00:40:12;6.00;;;3.47;;
11604;SDS011;5858;43.076;25.626;2023-05-10T00:42:39;4.93;;;3.70;;
11604;SDS011;5858;43.076;25.626;2023-05-10T00:45:07;4.87;;;3.03;;
11604;SDS011;5858;43.076;25.626;2023-05-10T00:47:34;4.83;;;3.57;;
11604;SDS011;5858;43.076;25.626;2023-05-10T00:50:03;6.77;;;3.67;;
11604;SDS011;5858;43.076;25.626;2023-05-10T00:52:31;4.93;;;2.87;;
11604;SDS011;5858;43.076;25.626;2023-05-10T00:54:58;4.13;;;3.20;;
11604;SDS011;5858;43.076;25.626;2023-05-10T00:57:28;4.07;;;3.63;;
11604;SDS011;5858;43.076;25.626;2023-05-10T00:59:55;5.23;;;4.10;;
11604;SDS011;5858;43.076;25.626;2023-05-10T01:02:23;4.77;;;3.10;;
11604;SDS011;5858;43.076;25.626;2023-05-10T01:04:50;4.43;;;2.67;;
11604;SDS011;5858;43.076;25.626;2023-05-10T01:07:19;3.80;;;2.90;;
11604;SDS011;5858;43.076;25.626;2023-05-10T01:09:46;3.33;;;2.83;;
11604;SDS011;5858;43.076;25.626;2023-05-10T01:12:14;3.70;;;3.03;;
11604;SDS011;5858;43.076;25.626;2023-05-10T01:14:41;4.57;;;3.10;;
11604;SDS011;5858;43.076;25.626;2023-05-10T01:17:08;4.17;;;3.20;;
11604;SDS011;5858;43.076;25.626;2023-05-10T01:19:38;6.70;;;3.27;;
11604;SDS011;5858;43.076;25.626;2023-05-10T01:22:09;3.70;;;3.10;;
11604;SDS011;5858;43.076;25.626;2023-05-10T01:25:01;5.43;;;3.17;;
11604;SDS011;5858;43.076;25.626;2023-05-10T01:30:54;7.00;;;3.13;;
11604;SDS011;5858;43.076;25.626;2023-05-10T01:33:47;8.93;;;3.50;;
11604;SDS011;5858;43.076;25.626;2023-05-10T01:36:20;4.97;;;3.00;;
11604;SDS011;5858;43.076;25.626;2023-05-10T01:38:55;4.87;;;3.20;;
11604;SDS011;5858;43.076;25.626;2023-05-10T01:41:28;5.73;;;3.70;;
11604;SDS011;5858;43.076;25.626;2023-05-10T01:44:09;6.13;;;3.10;;
11604;SDS011;5858;43.076;25.626;2023-05-10T01:46:43;6.43;;;3.53;;
11604;SDS011;5858;43.076;25.626;2023-05-10T01:49:19;5.43;;;3.47;;
11604;SDS011;5858;43.076;25.626;2023-05-10T01:51:52;4.87;;;2.90;;
11604;SDS011;5858;43.076;25.626;2023-05-10T01:54:24;4.90;;;3.37;;
11604;SDS011;5858;43.076;25.626;2023-05-10T01:57:03;4.50;;;3.20;;
11604;SDS011;5858;43.076;25.626;2023-05-10T01:59:35;5.57;;;3.10;;
11604;SDS011;5858;43.076;25.626;2023-05-10T02:02:05;6.17;;;3.20;;
11604;SDS011;5858;43.076;25.626;2023-05-10T02:04:38;6.50;;;3.97;;
11604;SDS011;5858;43.076;25.626;2023-05-10T02:07:07;6.07;;;3.70;;
11604;SDS011;5858;43.076;25.626;2023-05-10T02:09:36;5.00;;;3.27;;
11604;SDS011;5858;43.076;25.626;2023-05-10T02:12:04;4.73;;;2.90;;
11604;SDS011;5858;43.076;25.626;2023-05-10T02:14:34;6.60;;;3.60;;
11604;SDS011;5858;43.076;25.626;2023-05-10T02:17:04;6.37;;;3.27;;
11604;SDS011;5858;43.076;25.626;2023-05-10T02:19:32;3.73;;;3.13;;
11604;SDS011;5858;43.076;25.626;2023-05-10T02:22:02;4.17;;;3.60;;
11604;SDS011;5858;43.076;25.626;2023-05-10T02:24:30;10.67;;;3.90;;
11604;SDS011;5858;43.076;25.626;2023-05-10T02:27:01;6.83;;;3.80;;
11604;SDS011;5858;43.076;25.626;2023-05-10T02:29:30;5.40;;;3.60;;
11604;SDS011;5858;43.076;25.626;2023-05-10T02:31:58;5.10;;;3.70;;
11604;SDS011;5858;43.076;25.626;2023-05-10T02:34:26;6.63;;;3.40;;
11604;SDS011;5858;43.076;25.626;2023-05-10T02:36:54;4.93;;;3.60;;
11604;SDS011;5858;43.076;25.626;2023-05-10T02:39:23;5.47;;;3.53;;
11604;SDS011;5858;43.076;25.626;2023-05-10T02:41:53;7.50;;;3.90;;
11604;SDS011;5858;43.076;25.626;2023-05-10T02:44:22;8.80;;;4.47;;
11604;SDS011;5858;43.076;25.626;2023-05-10T02:46:50;4.70;;;3.60;;
11604;SDS011;5858;43.076;25.626;2023-05-10T02:49:17;4.63;;;3.03;;
11604;SDS011;5858;43.076;25.626;2023-05-10T02:51:47;6.77;;;3.47;;
11604;SDS011;5858;43.076;25.626;2023-05-10T02:54:24;5.97;;;3.90;;
11604;SDS011;5858;43.076;25.626;2023-05-10T02:56:55;6.03;;;4.00;;
11604;SDS011;5858;43.076;25.626;2023-05-10T02:59:24;5.70;;;3.90;;
11604;SDS011;5858;43.076;25.626;2023-05-10T03:01:51;7.10;;;4.07;;
11604;SDS011;5858;43.076;25.626;2023-05-10T03:04:18;6.33;;;4.33;;
11604;SDS011;5858;43.076;25.626;2023-05-10T03:06:45;7.13;;;4.40;;
11604;SDS011;5858;43.076;25.626;2023-05-10T03:09:15;8.07;;;4.00;;
11604;SDS011;5858;43.076;25.626;2023-05-10T03:11:47;4.83;;;4.23;;
11604;SDS011;5858;43.076;25.626;2023-05-10T03:14:25;4.60;;;4.20;;
11604;SDS011;5858;43.076;25.626;2023-05-10T03:17:09;7.73;;;4.33;;
11604;SDS011;5858;43.076;25.626;2023-05-10T03:19:44;6.17;;;3.87;;
11604;SDS011;5858;43.076;25.626;2023-05-10T03:22:21;4.60;;;3.70;;
11604;SDS011;5858;43.076;25.626;2023-05-10T03:24:54;5.10;;;4.13;;
11604;SDS011;5858;43.076;25.626;2023-05-10T03:27:28;4.93;;;3.50;;
11604;SDS011;5858;43.076;25.626;2023-05-10T03:29:59;6.17;;;3.80;;
11604;SDS011;5858;43.076;25.626;2023-05-10T03:32:31;5.70;;;3.80;;
11604;SDS011;5858;43.076;25.626;2023-05-10T03:34:59;9.40;;;4.43;;
11604;SDS011;5858;43.076;25.626;2023-05-10T03:37:26;6.73;;;4.10;;
11604;SDS011;5858;43.076;25.626;2023-05-10T03:39:53;8.77;;;3.93;;
11604;SDS011;5858;43.076;25.626;2023-05-10T03:42:21;6.57;;;3.67;;
11604;SDS011;5858;43.076;25.626;2023-05-10T03:44:49;7.63;;;4.30;;
11604;SDS011;5858;43.076;25.626;2023-05-10T03:47:16;4.10;;;3.50;;
11604;SDS011;5858;43.076;25.626;2023-05-10T03:49:43;5.00;;;3.67;;
11604;SDS011;5858;43.076;25.626;2023-05-10T03:52:10;6.60;;;3.90;;
11604;SDS011;5858;43.076;25.626;2023-05-10T03:54:38;6.57;;;3.93;;
11604;SDS011;5858;43.076;25.626;2023-05-10T03:57:06;5.10;;;3.50;;
11604;SDS011;5858;43.076;25.626;2023-05-10T03:59:33;5.10;;;3.57;;
11604;SDS011;5858;43.076;25.626;2023-05-10T04:02:02;3.63;;;3.33;;
11604;SDS011;5858;43.076;25.626;2023-05-10T04:04:29;5.87;;;3.40;;
11604;SDS011;5858;43.076;25.626;2023-05-10T04:06:56;5.80;;;3.97;;
11604;SDS011;5858;43.076;25.626;2023-05-10T04:09:23;7.17;;;3.10;;
11604;SDS011;5858;43.076;25.626;2023-05-10T04:11:50;4.73;;;3.20;;
11604;SDS011;5858;43.076;25.626;2023-05-10T04:14:17;7.63;;;3.83;;
11604;SDS011;5858;43.076;25.626;2023-05-10T04:16:44;6.03;;;3.43;;
11604;SDS011;5858;43.076;25.626;2023-05-10T04:19:13;5.93;;;3.40;;
11604;SDS011;5858;43.076;25.626;2023-05-10T04:21:40;5.70;;;4.10;;
11604;SDS011;5858;43.076;25.626;2023-05-10T04:24:07;7.13;;;4.80;;
11604;SDS011;5858;43.076;25.626;2023-05-10T04:26:34;6.20;;;2.97;;
11604;SDS011;5858;43.076;25.626;2023-05-10T04:29:01;6.17;;;3.30;;
11604;SDS011;5858;43.076;25.626;2023-05-10T04:31:28;8.57;;;3.50;;
11604;SDS011;5858;43.076;25.626;2023-05-10T04:33:55;5.37;;;3.00;;
11604;SDS011;5858;43.076;25.626;2023-05-10T04:36:27;6.20;;;3.20;;
11604;SDS011;5858;43.076;25.626;2023-05-10T04:38:54;8.57;;;3.20;;
11604;SDS011;5858;43.076;25.626;2023-05-10T04:41:21;7.63;;;3.03;;
11604;SDS011;5858;43.076;25.626;2023-05-10T04:43:49;5.00;;;3.20;;
11604;SDS011;5858;43.076;25.626;2023-05-10T04:46:19;4.03;;;2.53;;
11604;SDS011;5858;43.076;25.626;2023-05-10T04:48:47;3.57;;;2.60;;
11604;SDS011;5858;43.076;25.626;2023-05-10T04:51:14;6.60;;;3.00;;
11604;SDS011;5858;43.076;25.626;2023-05-10T04:53:43;7.20;;;2.70;;
11604;SDS011;5858;43.076;25.626;2023-05-10T04:56:10;9.38;;;3.95;;
11604;SDS011;5858;43.076;25.626;2023-05-10T04:58:44;6.55;;;3.08;;
11604;SDS011;5858;43.076;25.626;2023-05-10T05:01:11;3.20;;;2.33;;
11604;SDS011;5858;43.076;25.626;2023-05-10T05:03:41;6.97;;;2.85;;
11604;SDS011;5858;43.076;25.626;2023-05-10T05:06:11;4.40;;;2.40;;
11604;SDS011;5858;43.076;25.626;2023-05-10T05:08:39;3.88;;;2.88;;
11604;SDS011;5858;43.076;25.626;2023-05-10T05:11:10;9.00;;;2.78;;
11604;SDS011;5858;43.076;25.626;2023-05-10T05:13:37;4.40;;;2.38;;
11604;SDS011;5858;43.076;25.626;2023-05-10T05:16:04;4.45;;;2.60;;
11604;SDS011;5858;43.076;25.626;2023-05-10T05:18:32;2.67;;;2.33;;
11604;SDS011;5858;43.076;25.626;2023-05-10T05:20:59;2.85;;;2.35;;
11604;SDS011;5858;43.076;25.626;2023-05-10T05:23:26;3.83;;;2.00;;
11604;SDS011;5858;43.076;25.626;2023-05-10T05:25:54;2.15;;;1.98;;
11604;SDS011;5858;43.076;25.626;2023-05-10T05:28:22;4.18;;;2.20;;
11604;SDS011;5858;43.076;25.626;2023-05-10T05:30:49;4.57;;;2.40;;
11604;SDS011;5858;43.076;25.626;2023-05-10T05:33:21;2.38;;;1.98;;
11604;SDS011;5858;43.076;25.626;2023-05-10T05:35:51;2.50;;;2.30;;
11604;SDS011;5858;43.076;25.626;2023-05-10T05:38:18;2.97;;;2.47;;
11604;SDS011;5858;43.076;25.626;2023-05-10T05:40:46;4.00;;;2.20;;
11604;SDS011;5858;43.076;25.626;2023-05-10T05:43:13;4.07;;;2.05;;
11604;SDS011;5858;43.076;25.626;2023-05-10T05:45:42;3.55;;;2.42;;
11604;SDS011;5858;43.076;25.626;2023-05-10T05:48:10;2.55;;;2.35;;
11604;SDS011;5858;43.076;25.626;2023-05-10T05:50:40;3.83;;;2.22;;
11604;SDS011;5858;43.076;25.626;2023-05-10T05:53:07;4.47;;;3.30;;
11604;SDS011;5858;43.076;25.626;2023-05-10T05:55:35;2.55;;;2.10;;
11604;SDS011;5858;43.076;25.626;2023-05-10T05:58:17;2.88;;;2.17;;
11604;SDS011;5858;43.076;25.626;2023-05-10T06:01:06;2.33;;;2.13;;
11604;SDS011;5858;43.076;25.626;2023-05-10T06:03:41;2.45;;;2.25;;
11604;SDS011;5858;43.076;25.626;2023-05-10T06:06:17;2.83;;;2.03;;
11604;SDS011;5858;43.076;25.626;2023-05-10T06:16:40;3.55;;;2.50;;
11604;SDS011;5858;43.076;25.626;2023-05-10T06:19:08;4.78;;;2.30;;
11604;SDS011;5858;43.076;25.626;2023-05-10T06:21:35;2.88;;;2.20;;
11604;SDS011;5858;43.076;25.626;2023-05-10T06:24:03;4.15;;;2.30;;
11604;SDS011;5858;43.076;25.626;2023-05-10T06:26:32;5.90;;;2.50;;
11604;SDS011;5858;43.076;25.626;2023-05-10T06:28:59;2.85;;;2.33;;
11604;SDS011;5858;43.076;25.626;2023-05-10T06:31:35;2.80;;;2.13;;
11604;SDS011;5858;43.076;25.626;2023-05-10T06:34:04;4.57;;;2.40;;
11604;SDS011;5858;43.076;25.626;2023-05-10T06:36:33;5.40;;;2.30;;
11604;SDS011;5858;43.076;25.626;2023-05-10T06:39:00;2.92;;;2.08;;
11604;SDS011;5858;43.076;25.626;2023-05-10T06:41:33;4.88;;;3.53;;
11604;SDS011;5858;43.076;25.626;2023-05-10T06:44:10;3.38;;;2.50;;
11604;SDS011;5858;43.076;25.626;2023-05-10T06:46:38;2.50;;;2.30;;
11604;SDS011;5858;43.076;25.626;2023-05-10T06:49:09;3.55;;;2.13;;
11604;SDS011;5858;43.076;25.626;2023-05-10T06:51:36;4.35;;;2.50;;
11604;SDS011;5858;43.076;25.626;2023-05-10T06:54:04;5.03;;;2.40;;
11604;SDS011;5858;43.076;25.626;2023-05-10T06:56:32;3.17;;;2.70;;
11604;SDS011;5858;43.076;25.626;2023-05-10T06:59:02;3.78;;;2.08;;
11604;SDS011;5858;43.076;25.626;2023-05-10T07:01:29;4.18;;;2.83;;
11604;SDS011;5858;43.076;25.626;2023-05-10T07:06:54;4.95;;;3.88;;
11604;SDS011;5858;43.076;25.626;2023-05-10T07:09:22;4.13;;;3.70;;
11604;SDS011;5858;43.076;25.626;2023-05-10T07:11:49;2.50;;;2.30;;
11604;SDS011;5858;43.076;25.626;2023-05-10T07:14:16;2.22;;;2.03;;
11604;SDS011;5858;43.076;25.626;2023-05-10T07:16:46;3.55;;;2.67;;
11604;SDS011;5858;43.076;25.626;2023-05-10T07:19:20;2.13;;;1.88;;
11604;SDS011;5858;43.076;25.626;2023-05-10T07:21:51;3.60;;;2.33;;
11604;SDS011;5858;43.076;25.626;2023-05-10T07:24:18;3.53;;;2.25;;
11604;SDS011;5858;43.076;25.626;2023-05-10T07:26:48;2.90;;;2.22;;
11604;SDS011;5858;43.076;25.626;2023-05-10T07:29:15;2.78;;;2.15;;
11604;SDS011;5858;43.076;25.626;2023-05-10T07:31:42;2.67;;;2.10;;
11604;SDS011;5858;43.076;25.626;2023-05-10T07:34:09;3.47;;;2.08;;
11604;SDS011;5858;43.076;25.626;2023-05-10T07:36:37;10.07;;;1.95;;
11604;SDS011;5858;43.076;25.626;2023-05-10T07:39:04;3.92;;;1.95;;
11604;SDS011;5858;43.076;25.626;2023-05-10T07:41:41;3.75;;;2.63;;
11604;SDS011;5858;43.076;25.626;2023-05-10T07:44:24;2.67;;;2.20;;
11604;SDS011;5858;43.076;25.626;2023-05-10T07:46:51;4.75;;;3.97;;
11604;SDS011;5858;43.076;25.626;2023-05-10T07:49:18;6.30;;;5.13;;
11604;SDS011;5858;43.076;25.626;2023-05-10T07:51:50;5.00;;;3.30;;
11604;SDS011;5858;43.076;25.626;2023-05-10T07:54:24;4.15;;;2.45;;
11604;SDS011;5858;43.076;25.626;2023-05-10T07:56:51;2.88;;;2.58;;
11604;SDS011;5858;43.076;25.626;2023-05-10T07:59:18;3.50;;;2.47;;
11604;SDS011;5858;43.076;25.626;2023-05-10T08:01:45;3.63;;;2.35;;
11604;SDS011;5858;43.076;25.626;2023-05-10T08:04:12;2.28;;;1.90;;
11604;SDS011;5858;43.076;25.626;2023-05-10T08:06:40;3.58;;;1.95;;
11604;SDS011;5858;43.076;25.626;2023-05-10T08:09:10;4.57;;;2.00;;
11604;SDS011;5858;43.076;25.626;2023-05-10T08:11:37;2.90;;;2.13;;
11604;SDS011;5858;43.076;25.626;2023-05-10T08:14:06;5.05;;;3.67;;
11604;SDS011;5858;43.076;25.626;2023-05-10T08:16:45;2.63;;;2.17;;
11604;SDS011;5858;43.076;25.626;2023-05-10T08:19:18;4.88;;;2.08;;
11604;SDS011;5858;43.076;25.626;2023-05-10T08:21:52;4.50;;;2.15;;
11604;SDS011;5858;43.076;25.626;2023-05-10T08:24:23;3.60;;;2.20;;
11604;SDS011;5858;43.076;25.626;2023-05-10T08:26:50;2.78;;;1.98;;
11604;SDS011;5858;43.076;25.626;2023-05-10T08:29:26;3.00;;;2.00;;
11604;SDS011;5858;43.076;25.626;2023-05-10T08:32:03;2.28;;;2.08;;
11604;SDS011;5858;43.076;25.626;2023-05-10T08:34:32;3.30;;;2.00;;
11604;SDS011;5858;43.076;25.626;2023-05-10T08:37:03;3.00;;;2.20;;
11604;SDS011;5858;43.076;25.626;2023-05-10T08:39:39;4.32;;;2.45;;
11604;SDS011;5858;43.076;25.626;2023-05-10T08:42:11;3.17;;;1.75;;
11604;SDS011;5858;43.076;25.626;2023-05-10T08:44:51;3.00;;;1.63;;
11604;SDS011;5858;43.076;25.626;2023-05-10T08:47:31;5.53;;;2.30;;
11604;SDS011;5858;43.076;25.626;2023-05-10T08:50:01;2.28;;;1.80;;
11604;SDS011;5858;43.076;25.626;2023-05-10T08:52:46;2.33;;;1.80;;
11604;SDS011;5858;43.076;25.626;2023-05-10T08:58:03;2.55;;;1.80;;
11604;SDS011;5858;43.076;25.626;2023-05-10T09:01:06;2.85;;;2.42;;
11604;SDS011;5858;43.076;25.626;2023-05-10T09:03:35;4.20;;;2.40;;
11604;SDS011;5858;43.076;25.626;2023-05-10T09:06:38;4.15;;;2.40;;
11604;SDS011;5858;43.076;25.626;2023-05-10T09:09:12;4.68;;;2.72;;
11604;SDS011;5858;43.076;25.626;2023-05-10T09:11:42;4.25;;;2.65;;
11604;SDS011;5858;43.076;25.626;2023-05-10T09:14:09;2.75;;;1.70;;
11604;SDS011;5858;43.076;25.626;2023-05-10T09:16:39;4.18;;;1.90;;
11604;SDS011;5858;43.076;25.626;2023-05-10T09:19:07;2.13;;;1.75;;
11604;SDS011;5858;43.076;25.626;2023-05-10T09:21:35;1.83;;;1.55;;
11604;SDS011;5858;43.076;25.626;2023-05-10T09:24:04;3.47;;;2.00;;
11604;SDS011;5858;43.076;25.626;2023-05-10T09:26:35;2.38;;;1.80;;
11604;SDS011;5858;43.076;25.626;2023-05-10T09:29:13;3.05;;;2.08;;
11604;SDS011;5858;43.076;25.626;2023-05-10T09:31:44;3.30;;;2.03;;
11604;SDS011;5858;43.076;25.626;2023-05-10T09:34:30;3.97;;;1.80;;
11604;SDS011;5858;43.076;25.626;2023-05-10T09:37:00;2.90;;;1.60;;
11604;SDS011;5858;43.076;25.626;2023-05-10T09:39:32;4.97;;;2.45;;
11604;SDS011;5858;43.076;25.626;2023-05-10T09:42:03;4.65;;;2.45;;
11604;SDS011;5858;43.076;25.626;2023-05-10T09:44:31;3.33;;;2.67;;
11604;SDS011;5858;43.076;25.626;2023-05-10T09:46:59;3.38;;;2.10;;
11604;SDS011;5858;43.076;25.626;2023-05-10T09:49:36;3.65;;;2.17;;
11604;SDS011;5858;43.076;25.626;2023-05-10T09:52:04;5.35;;;1.83;;
11604;SDS011;5858;43.076;25.626;2023-05-10T09:54:33;2.00;;;1.77;;
11604;SDS011;5858;43.076;25.626;2023-05-10T09:57:03;5.40;;;1.88;;
11604;SDS011;5858;43.076;25.626;2023-05-10T09:59:38;2.05;;;1.50;;
11604;SDS011;5858;43.076;25.626;2023-05-10T10:02:15;2.83;;;1.60;;
11604;SDS011;5858;43.076;25.626;2023-05-10T10:04:49;2.88;;;1.70;;
11604;SDS011;5858;43.076;25.626;2023-05-10T10:07:23;2.63;;;2.00;;
11604;SDS011;5858;43.076;25.626;2023-05-10T10:09:51;2.50;;;1.83;;
11604;SDS011;5858;43.076;25.626;2023-05-10T10:12:21;1.63;;;1.52;;
11604;SDS011;5858;43.076;25.626;2023-05-10T10:14:48;2.42;;;1.90;;
11604;SDS011;5858;43.076;25.626;2023-05-10T10:17:19;1.85;;;1.70;;
11604;SDS011;5858;43.076;25.626;2023-05-10T10:19:47;2.22;;;1.40;;
11604;SDS011;5858;43.076;25.626;2023-05-10T10:22:18;1.35;;;1.25;;
11604;SDS011;5858;43.076;25.626;2023-05-10T10:24:54;2.83;;;1.70;;
11604;SDS011;5858;43.076;25.626;2023-05-10T10:27:48;3.40;;;1.75;;
11604;SDS011;5858;43.076;25.626;2023-05-10T10:30:27;1.50;;;1.40;;
11604;SDS011;5858;43.076;25.626;2023-05-10T10:33:44;3.00;;;2.00;;
11604;SDS011;5858;43.076;25.626;2023-05-10T10:40:23;2.40;;;1.65;;
11604;SDS011;5858;43.076;25.626;2023-05-10T10:49:14;2.28;;;1.50;;
11604;SDS011;5858;43.076;25.626;2023-05-10T10:52:23;5.05;;;1.50;;
11604;SDS011;5858;43.076;25.626;2023-05-10T10:55:04;1.60;;;1.50;;
11604;SDS011;5858;43.076;25.626;2023-05-10T10:57:35;3.78;;;1.83;;
11604;SDS011;5858;43.076;25.626;2023-05-10T11:00:22;1.50;;;1.27;;
11604;SDS011;5858;43.076;25.626;2023-05-10T11:02:55;3.47;;;1.80;;
11604;SDS011;5858;43.076;25.626;2023-05-10T11:05:39;2.40;;;1.80;;
11604;SDS011;5858;43.076;25.626;2023-05-10T11:08:18;4.18;;;1.70;;
11604;SDS011;5858;43.076;25.626;2023-05-10T11:11:22;2.28;;;1.60;;
11604;SDS011;5858;43.076;25.626;2023-05-10T11:14:02;3.22;;;1.55;;
11604;SDS011;5858;43.076;25.626;2023-05-10T11:16:40;1.65;;;1.40;;
11604;SDS011;5858;43.076;25.626;2023-05-10T11:19:08;1.52;;;1.42;;
11604;SDS011;5858;43.076;25.626;2023-05-10T11:21:44;3.15;;;2.13;;
11604;SDS011;5858;43.076;25.626;2023-05-10T11:24:16;3.28;;;1.95;;
11604;SDS011;5858;43.076;25.626;2023-05-10T11:26:44;2.30;;;2.10;;
11604;SDS011;5858;43.076;25.626;2023-05-10T16:04:20;2.47;;;1.95;;
11604;SDS011;5858;43.076;25.626;2023-05-10T16:06:48;2.50;;;2.13;;
11604;SDS011;5858;43.076;25.626;2023-05-10T16:09:17;4.28;;;1.90;;
11604;SDS011;5858;43.076;25.626;2023-05-10T16:11:44;3.65;;;2.42;;
11604;SDS011;5858;43.076;25.626;2023-05-10T16:14:11;2.22;;;2.03;;
11604;SDS011;5858;43.076;25.626;2023-05-10T16:16:38;5.13;;;2.08;;
11604;SDS011;5858;43.076;25.626;2023-05-10T16:19:05;2.63;;;1.98;;
11604;SDS011;5858;43.076;25.626;2023-05-10T16:21:35;4.28;;;1.98;;
11604;SDS011;5858;43.076;25.626;2023-05-10T16:24:05;2.35;;;2.15;;
11604;SDS011;5858;43.076;25.626;2023-05-10T16:26:32;2.40;;;1.55;;
11604;SDS011;5858;43.076;25.626;2023-05-10T16:29:04;2.65;;;2.42;;
11604;SDS011;5858;43.076;25.626;2023-05-10T16:31:32;2.60;;;2.30;;
11604;SDS011;5858;43.076;25.626;2023-05-10T16:33:59;1.95;;;1.75;;
11604;SDS011;5858;43.076;25.626;2023-05-10T16:36:26;1.85;;;1.75;;
11604;SDS011;5858;43.076;25.626;2023-05-10T16:38:58;1.98;;;1.77;;
11604;SDS011;5858;43.076;25.626;2023-05-10T16:41:34;2.08;;;1.88;;
11604;SDS011;5858;43.076;25.626;2023-05-10T16:44:01;3.33;;;2.20;;
11604;SDS011;5858;43.076;25.626;2023-05-10T16:46:29;2.93;;;2.30;;
11604;SDS011;5858;43.076;25.626;2023-05-10T16:48:56;2.30;;;2.10;;
11604;SDS011;5858;43.076;25.626;2023-05-10T16:51:24;3.28;;;2.03;;
11604;SDS011;5858;43.076;25.626;2023-05-10T16:53:51;3.08;;;2.10;;
11604;SDS011;5858;43.076;25.626;2023-05-10T16:56:24;2.33;;;2.13;;
11604;SDS011;5858;43.076;25.626;2023-05-10T16:59:16;2.20;;;2.00;;
11604;SDS011;5858;43.076;25.626;2023-05-10T17:02:11;2.50;;;2.00;;
11604;SDS011;5858;43.076;25.626;2023-05-10T17:04:42;3.13;;;2.30;;
11604;SDS011;5858;43.076;25.626;2023-05-10T17:07:09;5.23;;;2.37;;
11604;SDS011;5858;43.076;25.626;2023-05-10T17:09:39;3.20;;;2.30;;
11604;SDS011;5858;43.076;25.626;2023-05-10T17:12:16;3.83;;;2.40;;
11604;SDS011;5858;43.076;25.626;2023-05-10T17:14:43;3.83;;;1.90;;
11604;SDS011;5858;43.076;25.626;2023-05-10T17:17:10;2.73;;;2.27;;
11604;SDS011;5858;43.076;25.626;2023-05-10T17:19:43;4.23;;;2.27;;
11604;SDS011;5858;43.076;25.626;2023-05-10T17:22:20;2.17;;;1.97;;
11604;SDS011;5858;43.076;25.626;2023-05-10T17:24:57;2.60;;;2.20;;
11604;SDS011;5858;43.076;25.626;2023-05-10T17:27:43;2.47;;;2.03;;
11604;SDS011;5858;43.076;25.626;2023-05-10T17:30:13;3.10;;;2.30;;
11604;SDS011;5858;43.076;25.626;2023-05-10T17:32:49;2.60;;;2.10;;
11604;SDS011;5858;43.076;25.626;2023-05-10T17:38:17;2.50;;;1.93;;
11604;SDS011;5858;43.076;25.626;2023-05-10T17:40:45;3.17;;;2.57;;
11604;SDS011;5858;43.076;25.626;2023-05-10T17:43:14;2.30;;;2.10;;
11604;SDS011;5858;43.076;25.626;2023-05-10T17:45:45;3.97;;;2.50;;
11604;SDS011;5858;43.076;25.626;2023-05-10T17:48:34;3.13;;;1.87;;
11604;SDS011;5858;43.076;25.626;2023-05-10T17:51:06;2.30;;;2.10;;
11604;SDS011;5858;43.076;25.626;2023-05-10T17:53:42;5.47;;;3.10;;
11604;SDS011;5858;43.076;25.626;2023-05-10T17:56:18;3.80;;;2.10;;
11604;SDS011;5858;43.076;25.626;2023-05-10T17:58:49;5.60;;;1.97;;
11604;SDS011;5858;43.076;25.626;2023-05-10T18:01:19;4.20;;;2.20;;
11604;SDS011;5858;43.076;25.626;2023-05-10T18:03:47;2.67;;;2.30;;
11604;SDS011;5858;43.076;25.626;2023-05-10T18:06:16;3.60;;;2.50;;
11604;SDS011;5858;43.076;25.626;2023-05-10T18:08:43;2.80;;;2.53;;
11604;SDS011;5858;43.076;25.626;2023-05-10T18:11:18;4.97;;;3.73;;
11604;SDS011;5858;43.076;25.626;2023-05-10T18:13:53;4.93;;;3.07;;
11604;SDS011;5858;43.076;25.626;2023-05-10T18:16:25;5.83;;;3.20;;
11604;SDS011;5858;43.076;25.626;2023-05-10T18:18:56;4.93;;;3.13;;
11604;SDS011;5858;43.076;25.626;2023-05-10T18:21:26;4.07;;;2.30;;
11604;SDS011;5858;43.076;25.626;2023-05-10T18:26:42;4.90;;;2.27;;
11604;SDS011;5858;43.076;25.626;2023-05-10T18:29:12;2.87;;;2.60;;
11604;SDS011;5858;43.076;25.626;2023-05-10T18:31:40;3.17;;;2.60;;
11604;SDS011;5858;43.076;25.626;2023-05-10T18:34:07;4.40;;;3.17;;
11604;SDS011;5858;43.076;25.626;2023-05-10T18:36:39;2.93;;;2.73;;
11604;SDS011;5858;43.076;25.626;2023-05-10T18:39:12;3.23;;;2.40;;
11604;SDS011;5858;43.076;25.626;2023-05-10T18:41:47;4.47;;;2.90;;
11604;SDS011;5858;43.076;25.626;2023-05-10T18:44:21;3.97;;;3.20;;
11604;SDS011;5858;43.076;25.626;2023-05-10T18:46:54;6.10;;;2.97;;
11604;SDS011;5858;43.076;25.626;2023-05-10T18:49:23;4.23;;;3.00;;
11604;SDS011;5858;43.076;25.626;2023-05-10T18:51:54;3.27;;;2.97;;
11604;SDS011;5858;43.076;25.626;2023-05-10T18:54:21;4.57;;;3.67;;
11604;SDS011;5858;43.076;25.626;2023-05-10T18:56:48;3.33;;;2.93;;
11604;SDS011;5858;43.076;25.626;2023-05-10T18:59:15;3.47;;;2.80;;
11604;SDS011;5858;43.076;25.626;2023-05-10T19:01:44;3.53;;;2.63;;
11604;SDS011;5858;43.076;25.626;2023-05-10T19:04:12;3.33;;;2.63;;
11604;SDS011;5858;43.076;25.626;2023-05-10T19:06:39;5.10;;;2.80;;
11604;SDS011;5858;43.076;25.626;2023-05-10T19:09:07;3.80;;;2.60;;
11604;SDS011;5858;43.076;25.626;2023-05-10T19:11:39;5.10;;;3.10;;
11604;SDS011;5858;43.076;25.626;2023-05-10T19:14:07;4.57;;;3.00;;
11604;SDS011;5858;43.076;25.626;2023-05-10T19:16:37;3.60;;;3.30;;
11604;SDS011;5858;43.076;25.626;2023-05-10T19:19:06;4.80;;;3.53;;
11604;SDS011;5858;43.076;25.626;2023-05-10T19:21:34;4.73;;;3.43;;
11604;SDS011;5858;43.076;25.626;2023-05-10T19:24:02;5.07;;;3.00;;
11604;SDS011;5858;43.076;25.626;2023-05-10T19:26:31;3.10;;;2.80;;
11604;SDS011;5858;43.076;25.626;2023-05-10T19:28:59;4.60;;;3.40;;
11604;SDS011;5858;43.076;25.626;2023-05-10T19:31:29;4.30;;;3.50;;
11604;SDS011;5858;43.076;25.626;2023-05-10T19:34:03;4.77;;;3.83;;
11604;SDS011;5858;43.076;25.626;2023-05-10T19:36:32;3.57;;;3.27;;
11604;SDS011;5858;43.076;25.626;2023-05-10T19:44:12;3.83;;;3.40;;
11604;SDS011;5858;43.076;25.626;2023-05-10T19:46:42;5.17;;;3.87;;
11604;SDS011;5858;43.076;25.626;2023-05-10T19:49:26;4.20;;;3.80;;
11604;SDS011;5858;43.076;25.626;2023-05-10T19:52:26;4.53;;;3.60;;
11604;SDS011;5858;43.076;25.626;2023-05-10T19:54:56;3.73;;;3.43;;
11604;SDS011;5858;43.076;25.626;2023-05-10T19:57:24;3.93;;;3.40;;
11604;SDS011;5858;43.076;25.626;2023-05-10T19:59:52;4.27;;;3.67;;
11604;SDS011;5858;43.076;25.626;2023-05-10T20:02:21;3.87;;;3.50;;
11604;SDS011;5858;43.076;25.626;2023-05-10T20:04:49;5.80;;;3.93;;
11604;SDS011;5858;43.076;25.626;2023-05-10T20:07:16;3.90;;;3.60;;
11604;SDS011;5858;43.076;25.626;2023-05-10T20:09:44;7.13;;;4.00;;
11604;SDS011;5858;43.076;25.626;2023-05-10T20:15:22;4.10;;;3.70;;
11604;SDS011;5858;43.076;25.626;2023-05-10T20:17:50;6.40;;;4.00;;
11604;SDS011;5858;43.076;25.626;2023-05-10T20:20:18;4.40;;;4.00;;
11604;SDS011;5858;43.076;25.626;2023-05-10T20:22:46;5.43;;;4.03;;
11604;SDS011;5858;43.076;25.626;2023-05-10T20:25:18;5.50;;;4.07;;
11604;SDS011;5858;43.076;25.626;2023-05-10T20:27:47;5.70;;;4.30;;